sensor_id;sensor_type;location;lat;lon;timestamp;P1;durP1;ratioP1;P2;durP2;ratioP2
4244;SDS011;2136;48.502;9.194;2023-02-15T00:01:28;32.43;;;17.53;;
4244;SDS011;2136;48.502;9.194;2023-02-15T00:03:55;30.10;;;16.75;;
4244;SDS011;2136;48.502;9.194;2023-02-15T00:06:22;27.65;;;16.58;;
4244;SDS011;2136;48.502;9.194;2023-02-15T00:08:49;24.70;;;15.90;;
4244;SDS011;2136;48.502;9.194;2023-02-15T00:11:16;25.73;;;15.93;;
4244;SDS011;2136;48.502;9.194;2023-02-15T00:14:06;30.33;;;15.97;;
4244;SDS011;2136;48.502;9.194;2023-02-15T00:16:34;25.53;;;14.80;;
4244;SDS011;2136;48.502;9.194;2023-02-15T00:19:02;27.47;;;16.13;;
4244;SDS011;2136;48.502;9.194;2023-02-15T00:21:30;27.92;;;15.35;;
4244;SDS011;2136;48.502;9.194;2023-02-15T00:23:58;23.23;;;15.13;;
4244;SDS011;2136;48.502;9.194;2023-02-15T00:26:26;24.90;;;16.33;;
4244;SDS011;2136;48.502;9.194;2023-02-15T00:28:54;28.50;;;16.85;;
4244;SDS011;2136;48.502;9.194;2023-02-15T00:31:25;31.40;;;14.73;;
4244;SDS011;2136;48.502;9.194;2023-02-15T00:33:53;29.07;;;16.20;;
4244;SDS011;2136;48.502;9.194;2023-02-15T00:36:19;29.40;;;15.00;;
4244;SDS011;2136;48.502;9.194;2023-02-15T00:38:46;37.03;;;17.10;;
4244;SDS011;2136;48.502;9.194;2023-02-15T00:41:13;26.50;;;15.32;;
4244;SDS011;2136;48.502;9.194;2023-02-15T00:43:40;20.85;;;14.90;;
4244;SDS011;2136;48.502;9.194;2023-02-15T00:46:06;24.63;;;15.88;;
4244;SDS011;2136;48.502;9.194;2023-02-15T00:48:35;27.33;;;15.15;;
4244;SDS011;2136;48.502;9.194;2023-02-15T00:51:01;29.48;;;14.95;;
4244;SDS011;2136;48.502;9.194;2023-02-15T00:53:28;23.10;;;14.73;;
4244;SDS011;2136;48.502;9.194;2023-02-15T00:55:56;26.88;;;15.27;;
4244;SDS011;2136;48.502;9.194;2023-02-15T00:58:23;26.90;;;16.93;;
4244;SDS011;2136;48.502;9.194;2023-02-15T01:00:50;26.53;;;16.20;;
4244;SDS011;2136;48.502;9.194;2023-02-15T01:03:18;25.95;;;16.20;;
4244;SDS011;2136;48.502;9.194;2023-02-15T01:05:47;28.43;;;16.47;;
4244;SDS011;2136;48.502;9.194;2023-02-15T01:08:15;27.33;;;16.63;;
4244;SDS011;2136;48.502;9.194;2023-02-15T01:10:42;34.23;;;17.10;;
4244;SDS011;2136;48.502;9.194;2023-02-15T01:13:12;28.03;;;16.50;;
4244;SDS011;2136;48.502;9.194;2023-02-15T01:15:39;28.67;;;16.85;;
4244;SDS011;2136;48.502;9.194;2023-02-15T01:18:06;26.67;;;16.58;;
4244;SDS011;2136;48.502;9.194;2023-02-15T01:20:34;31.33;;;16.90;;
4244;SDS011;2136;48.502;9.194;2023-02-15T01:23:05;24.75;;;15.18;;
4244;SDS011;2136;48.502;9.194;2023-02-15T01:25:34;26.88;;;16.35;;
4244;SDS011;2136;48.502;9.194;2023-02-15T01:28:01;26.60;;;14.10;;
4244;SDS011;2136;48.502;9.194;2023-02-15T01:30:29;22.40;;;14.18;;
4244;SDS011;2136;48.502;9.194;2023-02-15T01:32:55;26.00;;;14.47;;
4244;SDS011;2136;48.502;9.194;2023-02-15T01:35:22;26.38;;;16.20;;
4244;SDS011;2136;48.502;9.194;2023-02-15T01:37:49;29.23;;;14.63;;
4244;SDS011;2136;48.502;9.194;2023-02-15T01:40:18;24.35;;;14.55;;
4244;SDS011;2136;48.502;9.194;2023-02-15T01:42:45;23.27;;;14.68;;
4244;SDS011;2136;48.502;9.194;2023-02-15T01:45:18;26.35;;;14.70;;
4244;SDS011;2136;48.502;9.194;2023-02-15T01:47:47;30.50;;;15.18;;
4244;SDS011;2136;48.502;9.194;2023-02-15T01:50:18;26.25;;;16.02;;
4244;SDS011;2136;48.502;9.194;2023-02-15T01:52:48;29.92;;;17.48;;
4244;SDS011;2136;48.502;9.194;2023-02-15T01:55:21;25.13;;;16.80;;
4244;SDS011;2136;48.502;9.194;2023-02-15T01:57:49;26.20;;;15.65;;
4244;SDS011;2136;48.502;9.194;2023-02-15T02:00:17;26.75;;;15.55;;
4244;SDS011;2136;48.502;9.194;2023-02-15T02:02:44;26.30;;;15.37;;
4244;SDS011;2136;48.502;9.194;2023-02-15T02:05:15;24.85;;;14.93;;
4244;SDS011;2136;48.502;9.194;2023-02-15T02:07:42;23.40;;;14.80;;
4244;SDS011;2136;48.502;9.194;2023-02-15T02:10:12;24.63;;;15.90;;
4244;SDS011;2136;48.502;9.194;2023-02-15T02:12:42;27.77;;;15.52;;
4244;SDS011;2136;48.502;9.194;2023-02-15T02:15:12;22.95;;;14.38;;
4244;SDS011;2136;48.502;9.194;2023-02-15T02:17:42;24.43;;;15.00;;
4244;SDS011;2136;48.502;9.194;2023-02-15T02:20:33;28.75;;;15.60;;
4244;SDS011;2136;48.502;9.194;2023-02-15T02:23:18;24.55;;;15.65;;
4244;SDS011;2136;48.502;9.194;2023-02-15T02:29:23;24.98;;;14.13;;
4244;SDS011;2136;48.502;9.194;2023-02-15T02:35:10;28.35;;;16.02;;
4244;SDS011;2136;48.502;9.194;2023-02-15T02:37:46;25.58;;;15.20;;
4244;SDS011;2136;48.502;9.194;2023-02-15T02:40:20;21.92;;;13.95;;
4244;SDS011;2136;48.502;9.194;2023-02-15T02:42:54;27.15;;;15.25;;
4244;SDS011;2136;48.502;9.194;2023-02-15T02:45:26;21.45;;;14.40;;
4244;SDS011;2136;48.502;9.194;2023-02-15T02:47:59;26.55;;;15.38;;
4244;SDS011;2136;48.502;9.194;2023-02-15T02:50:31;21.88;;;13.90;;
4244;SDS011;2136;48.502;9.194;2023-02-15T02:52:58;25.58;;;14.05;;
4244;SDS011;2136;48.502;9.194;2023-02-15T02:55:27;29.20;;;16.08;;
4244;SDS011;2136;48.502;9.194;2023-02-15T02:57:59;26.33;;;14.98;;
4244;SDS011;2136;48.502;9.194;2023-02-15T03:00:29;23.45;;;14.85;;
4244;SDS011;2136;48.502;9.194;2023-02-15T03:03:01;25.63;;;15.27;;
4244;SDS011;2136;48.502;9.194;2023-02-15T03:05:31;27.27;;;15.07;;
4244;SDS011;2136;48.502;9.194;2023-02-15T03:08:02;33.65;;;15.73;;
4244;SDS011;2136;48.502;9.194;2023-02-15T03:10:31;30.02;;;16.30;;
4244;SDS011;2136;48.502;9.194;2023-02-15T03:13:00;32.42;;;16.38;;
4244;SDS011;2136;48.502;9.194;2023-02-15T03:15:29;29.23;;;14.60;;
4244;SDS011;2136;48.502;9.194;2023-02-15T03:18:14;24.98;;;13.85;;
4244;SDS011;2136;48.502;9.194;2023-02-15T03:20:45;29.60;;;16.15;;
4244;SDS011;2136;48.502;9.194;2023-02-15T03:23:15;36.17;;;16.15;;
4244;SDS011;2136;48.502;9.194;2023-02-15T03:25:46;27.05;;;14.93;;
4244;SDS011;2136;48.502;9.194;2023-02-15T03:28:17;26.52;;;14.68;;
4244;SDS011;2136;48.502;9.194;2023-02-15T03:30:49;26.60;;;13.13;;
4244;SDS011;2136;48.502;9.194;2023-02-15T03:33:19;30.70;;;14.95;;
4244;SDS011;2136;48.502;9.194;2023-02-15T03:35:51;23.38;;;13.80;;
4244;SDS011;2136;48.502;9.194;2023-02-15T03:38:24;24.27;;;16.33;;
4244;SDS011;2136;48.502;9.194;2023-02-15T03:40:55;21.45;;;13.00;;
4244;SDS011;2136;48.502;9.194;2023-02-15T03:43:39;26.40;;;14.40;;
4244;SDS011;2136;48.502;9.194;2023-02-15T03:46:13;21.60;;;13.30;;
4244;SDS011;2136;48.502;9.194;2023-02-15T03:48:47;26.50;;;14.23;;
4244;SDS011;2136;48.502;9.194;2023-02-15T03:51:21;25.38;;;14.57;;
4244;SDS011;2136;48.502;9.194;2023-02-15T03:54:02;28.42;;;15.35;;
4244;SDS011;2136;48.502;9.194;2023-02-15T03:56:31;24.65;;;14.35;;
4244;SDS011;2136;48.502;9.194;2023-02-15T03:59:00;26.67;;;15.63;;
4244;SDS011;2136;48.502;9.194;2023-02-15T04:01:46;24.10;;;15.10;;
4244;SDS011;2136;48.502;9.194;2023-02-15T04:04:33;28.35;;;16.60;;
4244;SDS011;2136;48.502;9.194;2023-02-15T04:07:03;32.08;;;15.70;;
4244;SDS011;2136;48.502;9.194;2023-02-15T04:09:31;41.45;;;19.27;;
4244;SDS011;2136;48.502;9.194;2023-02-15T04:12:16;32.22;;;18.63;;
4244;SDS011;2136;48.502;9.194;2023-02-15T04:14:42;36.83;;;18.85;;
4244;SDS011;2136;48.502;9.194;2023-02-15T04:17:27;33.88;;;17.70;;
4244;SDS011;2136;48.502;9.194;2023-02-15T04:19:54;33.40;;;18.23;;
4244;SDS011;2136;48.502;9.194;2023-02-15T04:22:39;33.22;;;18.33;;
4244;SDS011;2136;48.502;9.194;2023-02-15T04:25:24;30.20;;;16.63;;
4244;SDS011;2136;48.502;9.194;2023-02-15T04:27:51;35.95;;;18.35;;
4244;SDS011;2136;48.502;9.194;2023-02-15T04:30:20;31.45;;;17.10;;
4244;SDS011;2136;48.502;9.194;2023-02-15T04:32:48;34.17;;;18.02;;
4244;SDS011;2136;48.502;9.194;2023-02-15T04:35:16;32.78;;;17.45;;
4244;SDS011;2136;48.502;9.194;2023-02-15T04:37:44;28.33;;;16.90;;
4244;SDS011;2136;48.502;9.194;2023-02-15T04:40:13;27.33;;;14.85;;
4244;SDS011;2136;48.502;9.194;2023-02-15T04:42:41;34.45;;;15.82;;
4244;SDS011;2136;48.502;9.194;2023-02-15T04:45:08;34.80;;;16.65;;
4244;SDS011;2136;48.502;9.194;2023-02-15T04:47:35;26.50;;;14.70;;
4244;SDS011;2136;48.502;9.194;2023-02-15T04:50:02;27.38;;;14.95;;
4244;SDS011;2136;48.502;9.194;2023-02-15T04:52:29;25.05;;;14.90;;
4244;SDS011;2136;48.502;9.194;2023-02-15T04:54:58;24.13;;;14.35;;
4244;SDS011;2136;48.502;9.194;2023-02-15T04:57:24;24.42;;;13.80;;
4244;SDS011;2136;48.502;9.194;2023-02-15T04:59:51;27.80;;;15.15;;
4244;SDS011;2136;48.502;9.194;2023-02-15T05:02:18;24.60;;;13.70;;
4244;SDS011;2136;48.502;9.194;2023-02-15T05:04:45;25.50;;;15.40;;
4244;SDS011;2136;48.502;9.194;2023-02-15T05:07:12;24.15;;;13.52;;
4244;SDS011;2136;48.502;9.194;2023-02-15T05:09:39;23.08;;;13.45;;
4244;SDS011;2136;48.502;9.194;2023-02-15T05:12:08;23.15;;;13.95;;
4244;SDS011;2136;48.502;9.194;2023-02-15T05:14:35;22.05;;;13.30;;
4244;SDS011;2136;48.502;9.194;2023-02-15T05:17:01;25.95;;;15.70;;
4244;SDS011;2136;48.502;9.194;2023-02-15T05:19:30;28.20;;;13.27;;
4244;SDS011;2136;48.502;9.194;2023-02-15T05:21:57;31.10;;;15.45;;
4244;SDS011;2136;48.502;9.194;2023-02-15T05:24:24;23.63;;;14.43;;
4244;SDS011;2136;48.502;9.194;2023-02-15T05:27:11;32.03;;;16.73;;
4244;SDS011;2136;48.502;9.194;2023-02-15T05:29:56;41.38;;;18.25;;
4244;SDS011;2136;48.502;9.194;2023-02-15T05:32:23;28.48;;;15.77;;
4244;SDS011;2136;48.502;9.194;2023-02-15T05:34:50;48.58;;;17.55;;
4244;SDS011;2136;48.502;9.194;2023-02-15T05:37:17;38.95;;;18.80;;
4244;SDS011;2136;48.502;9.194;2023-02-15T05:39:43;29.10;;;17.75;;
4244;SDS011;2136;48.502;9.194;2023-02-15T05:42:12;33.55;;;18.38;;
4244;SDS011;2136;48.502;9.194;2023-02-15T05:44:38;39.33;;;16.45;;
4244;SDS011;2136;48.502;9.194;2023-02-15T05:47:05;33.72;;;18.52;;
4244;SDS011;2136;48.502;9.194;2023-02-15T05:49:33;34.78;;;18.10;;
4244;SDS011;2136;48.502;9.194;2023-02-15T05:51:59;41.40;;;17.35;;
4244;SDS011;2136;48.502;9.194;2023-02-15T05:54:26;30.98;;;17.30;;
4244;SDS011;2136;48.502;9.194;2023-02-15T05:56:54;26.92;;;14.60;;
4244;SDS011;2136;48.502;9.194;2023-02-15T05:59:22;27.25;;;15.52;;
4244;SDS011;2136;48.502;9.194;2023-02-15T06:01:49;24.95;;;14.07;;
4244;SDS011;2136;48.502;9.194;2023-02-15T06:04:16;25.65;;;13.95;;
4244;SDS011;2136;48.502;9.194;2023-02-15T06:06:42;26.17;;;14.15;;
4244;SDS011;2136;48.502;9.194;2023-02-15T06:09:10;23.52;;;13.50;;
4244;SDS011;2136;48.502;9.194;2023-02-15T06:11:37;23.30;;;13.40;;
4244;SDS011;2136;48.502;9.194;2023-02-15T06:14:04;23.05;;;12.82;;
4244;SDS011;2136;48.502;9.194;2023-02-15T06:16:32;29.42;;;13.20;;
4244;SDS011;2136;48.502;9.194;2023-02-15T06:18:59;23.85;;;13.45;;
4244;SDS011;2136;48.502;9.194;2023-02-15T06:21:26;19.70;;;13.27;;
4244;SDS011;2136;48.502;9.194;2023-02-15T06:23:54;24.92;;;15.23;;
4244;SDS011;2136;48.502;9.194;2023-02-15T06:26:20;26.95;;;13.57;;
4244;SDS011;2136;48.502;9.194;2023-02-15T06:28:47;24.33;;;14.27;;
4244;SDS011;2136;48.502;9.194;2023-02-15T06:31:14;20.92;;;13.45;;
4244;SDS011;2136;48.502;9.194;2023-02-15T06:33:42;27.67;;;15.50;;
4244;SDS011;2136;48.502;9.194;2023-02-15T06:36:10;29.05;;;14.18;;
4244;SDS011;2136;48.502;9.194;2023-02-15T06:38:37;23.77;;;13.82;;
4244;SDS011;2136;48.502;9.194;2023-02-15T06:41:04;20.67;;;12.20;;
4244;SDS011;2136;48.502;9.194;2023-02-15T06:43:31;29.08;;;14.00;;
4244;SDS011;2136;48.502;9.194;2023-02-15T06:45:58;27.50;;;14.55;;
4244;SDS011;2136;48.502;9.194;2023-02-15T06:48:25;25.60;;;14.32;;
4244;SDS011;2136;48.502;9.194;2023-02-15T06:50:54;21.85;;;14.30;;
4244;SDS011;2136;48.502;9.194;2023-02-15T06:53:20;24.27;;;14.27;;
4244;SDS011;2136;48.502;9.194;2023-02-15T06:55:47;20.38;;;13.13;;
4244;SDS011;2136;48.502;9.194;2023-02-15T06:58:14;24.95;;;14.70;;
4244;SDS011;2136;48.502;9.194;2023-02-15T07:00:41;29.25;;;15.40;;
4244;SDS011;2136;48.502;9.194;2023-02-15T07:03:07;30.08;;;16.63;;
4244;SDS011;2136;48.502;9.194;2023-02-15T07:05:34;33.30;;;16.52;;
4244;SDS011;2136;48.502;9.194;2023-02-15T07:08:03;30.40;;;15.95;;
4244;SDS011;2136;48.502;9.194;2023-02-15T07:10:29;32.38;;;14.68;;
4244;SDS011;2136;48.502;9.194;2023-02-15T07:12:56;28.98;;;16.27;;
4244;SDS011;2136;48.502;9.194;2023-02-15T07:15:22;26.83;;;16.20;;
4244;SDS011;2136;48.502;9.194;2023-02-15T07:17:49;21.75;;;14.52;;
4244;SDS011;2136;48.502;9.194;2023-02-15T07:20:17;30.75;;;15.55;;
4244;SDS011;2136;48.502;9.194;2023-02-15T07:22:45;28.90;;;15.68;;
4244;SDS011;2136;48.502;9.194;2023-02-15T07:25:14;29.25;;;15.02;;
4244;SDS011;2136;48.502;9.194;2023-02-15T07:27:41;23.75;;;15.05;;
4244;SDS011;2136;48.502;9.194;2023-02-15T07:30:09;27.27;;;17.38;;
4244;SDS011;2136;48.502;9.194;2023-02-15T07:32:38;27.75;;;15.52;;
4244;SDS011;2136;48.502;9.194;2023-02-15T07:35:25;29.20;;;14.73;;
4244;SDS011;2136;48.502;9.194;2023-02-15T07:37:52;26.95;;;15.43;;
4244;SDS011;2136;48.502;9.194;2023-02-15T07:40:21;23.38;;;14.63;;
4244;SDS011;2136;48.502;9.194;2023-02-15T07:42:48;23.80;;;14.35;;
4244;SDS011;2136;48.502;9.194;2023-02-15T07:45:16;21.10;;;13.40;;
4244;SDS011;2136;48.502;9.194;2023-02-15T07:47:43;19.02;;;12.55;;
4244;SDS011;2136;48.502;9.194;2023-02-15T07:50:10;19.50;;;13.02;;
4244;SDS011;2136;48.502;9.194;2023-02-15T07:52:37;25.80;;;14.55;;
4244;SDS011;2136;48.502;9.194;2023-02-15T07:55:04;20.20;;;12.30;;
4244;SDS011;2136;48.502;9.194;2023-02-15T07:57:32;28.83;;;13.60;;
4244;SDS011;2136;48.502;9.194;2023-02-15T07:59:59;21.88;;;12.50;;
4244;SDS011;2136;48.502;9.194;2023-02-15T08:02:26;22.55;;;12.70;;
4244;SDS011;2136;48.502;9.194;2023-02-15T08:04:53;21.77;;;11.65;;
4244;SDS011;2136;48.502;9.194;2023-02-15T08:07:20;24.88;;;13.80;;
4244;SDS011;2136;48.502;9.194;2023-02-15T08:09:47;21.55;;;12.23;;
4244;SDS011;2136;48.502;9.194;2023-02-15T08:12:14;25.88;;;12.32;;
4244;SDS011;2136;48.502;9.194;2023-02-15T08:14:42;23.33;;;11.00;;
4244;SDS011;2136;48.502;9.194;2023-02-15T08:17:09;26.63;;;12.70;;
4244;SDS011;2136;48.502;9.194;2023-02-15T08:19:35;19.93;;;13.13;;
4244;SDS011;2136;48.502;9.194;2023-02-15T08:22:03;23.93;;;12.83;;
4244;SDS011;2136;48.502;9.194;2023-02-15T08:24:32;17.30;;;12.50;;
4244;SDS011;2136;48.502;9.194;2023-02-15T08:26:59;20.23;;;12.80;;
4244;SDS011;2136;48.502;9.194;2023-02-15T08:29:28;20.27;;;12.90;;
4244;SDS011;2136;48.502;9.194;2023-02-15T08:31:58;21.60;;;13.00;;
4244;SDS011;2136;48.502;9.194;2023-02-15T08:34:27;22.87;;;11.67;;
4244;SDS011;2136;48.502;9.194;2023-02-15T08:36:55;18.10;;;10.17;;
4244;SDS011;2136;48.502;9.194;2023-02-15T08:39:22;16.63;;;10.80;;
4244;SDS011;2136;48.502;9.194;2023-02-15T08:41:49;14.10;;;10.07;;
4244;SDS011;2136;48.502;9.194;2023-02-15T08:44:16;17.60;;;10.20;;
4244;SDS011;2136;48.502;9.194;2023-02-15T08:46:45;18.67;;;10.90;;
4244;SDS011;2136;48.502;9.194;2023-02-15T08:49:15;18.67;;;11.20;;
4244;SDS011;2136;48.502;9.194;2023-02-15T08:51:43;13.90;;;10.37;;
4244;SDS011;2136;48.502;9.194;2023-02-15T08:54:12;13.07;;;8.93;;
4244;SDS011;2136;48.502;9.194;2023-02-15T08:56:40;13.07;;;9.30;;
4244;SDS011;2136;48.502;9.194;2023-02-15T08:59:12;14.23;;;9.20;;
4244;SDS011;2136;48.502;9.194;2023-02-15T09:01:40;11.93;;;9.40;;
4244;SDS011;2136;48.502;9.194;2023-02-15T09:04:07;11.50;;;8.73;;
4244;SDS011;2136;48.502;9.194;2023-02-15T09:06:36;14.03;;;9.27;;
4244;SDS011;2136;48.502;9.194;2023-02-15T09:09:04;13.70;;;10.13;;
4244;SDS011;2136;48.502;9.194;2023-02-15T09:11:33;16.07;;;8.80;;
4244;SDS011;2136;48.502;9.194;2023-02-15T09:14:03;15.10;;;8.80;;
4244;SDS011;2136;48.502;9.194;2023-02-15T09:16:33;12.03;;;9.23;;
4244;SDS011;2136;48.502;9.194;2023-02-15T09:19:00;14.67;;;8.73;;
4244;SDS011;2136;48.502;9.194;2023-02-15T09:21:29;12.30;;;9.10;;
4244;SDS011;2136;48.502;9.194;2023-02-15T09:23:59;14.00;;;9.80;;
4244;SDS011;2136;48.502;9.194;2023-02-15T09:26:27;14.23;;;9.53;;
4244;SDS011;2136;48.502;9.194;2023-02-15T09:28:56;12.97;;;10.10;;
4244;SDS011;2136;48.502;9.194;2023-02-15T09:31:26;15.50;;;9.00;;
4244;SDS011;2136;48.502;9.194;2023-02-15T09:33:54;12.73;;;8.83;;
4244;SDS011;2136;48.502;9.194;2023-02-15T09:36:22;12.70;;;8.83;;
4244;SDS011;2136;48.502;9.194;2023-02-15T09:38:52;11.07;;;8.60;;
4244;SDS011;2136;48.502;9.194;2023-02-15T09:41:27;14.43;;;8.00;;
4244;SDS011;2136;48.502;9.194;2023-02-15T09:44:21;13.43;;;9.00;;
4244;SDS011;2136;48.502;9.194;2023-02-15T09:47:00;12.57;;;8.33;;
4244;SDS011;2136;48.502;9.194;2023-02-15T09:49:38;13.83;;;8.63;;
4244;SDS011;2136;48.502;9.194;2023-02-15T09:55:16;14.47;;;8.77;;
4244;SDS011;2136;48.502;9.194;2023-02-15T09:57:59;13.47;;;8.90;;
4244;SDS011;2136;48.502;9.194;2023-02-15T10:00:37;13.93;;;9.50;;
4244;SDS011;2136;48.502;9.194;2023-02-15T10:03:15;15.40;;;9.40;;
4244;SDS011;2136;48.502;9.194;2023-02-15T10:05:59;13.20;;;9.53;;
4244;SDS011;2136;48.502;9.194;2023-02-15T10:08:48;15.57;;;9.70;;
4244;SDS011;2136;48.502;9.194;2023-02-15T10:11:36;14.60;;;9.67;;
4244;SDS011;2136;48.502;9.194;2023-02-15T10:14:19;15.10;;;10.10;;
4244;SDS011;2136;48.502;9.194;2023-02-15T10:17:10;12.20;;;9.50;;
4244;SDS011;2136;48.502;9.194;2023-02-15T10:19:50;15.87;;;10.53;;
4244;SDS011;2136;48.502;9.194;2023-02-15T10:22:32;12.63;;;9.40;;
4244;SDS011;2136;48.502;9.194;2023-02-15T10:25:17;13.53;;;9.60;;
4244;SDS011;2136;48.502;9.194;2023-02-15T10:27:54;17.27;;;9.50;;
4244;SDS011;2136;48.502;9.194;2023-02-15T10:30:27;11.90;;;9.07;;
4244;SDS011;2136;48.502;9.194;2023-02-15T10:33:03;13.37;;;9.40;;
4244;SDS011;2136;48.502;9.194;2023-02-15T10:35:40;12.30;;;8.40;;
4244;SDS011;2136;48.502;9.194;2023-02-15T10:38:19;17.97;;;10.10;;
4244;SDS011;2136;48.502;9.194;2023-02-15T10:40:55;14.47;;;10.07;;
4244;SDS011;2136;48.502;9.194;2023-02-15T10:43:35;17.43;;;9.73;;
4244;SDS011;2136;48.502;9.194;2023-02-15T10:46:17;17.80;;;9.57;;
4244;SDS011;2136;48.502;9.194;2023-02-15T10:48:58;12.80;;;10.00;;
4244;SDS011;2136;48.502;9.194;2023-02-15T10:51:50;13.43;;;9.43;;
4244;SDS011;2136;48.502;9.194;2023-02-15T10:54:28;17.43;;;10.33;;
4244;SDS011;2136;48.502;9.194;2023-02-15T10:57:03;28.57;;;11.97;;
4244;SDS011;2136;48.502;9.194;2023-02-15T10:59:54;13.33;;;10.07;;
4244;SDS011;2136;48.502;9.194;2023-02-15T11:02:36;15.37;;;10.13;;
4244;SDS011;2136;48.502;9.194;2023-02-15T11:05:24;22.13;;;10.23;;
4244;SDS011;2136;48.502;9.194;2023-02-15T11:08:00;11.43;;;10.17;;
4244;SDS011;2136;48.502;9.194;2023-02-15T11:10:32;13.87;;;10.07;;
4244;SDS011;2136;48.502;9.194;2023-02-15T11:13:02;10.93;;;9.70;;
4244;SDS011;2136;48.502;9.194;2023-02-15T11:15:34;14.20;;;11.07;;
4244;SDS011;2136;48.502;9.194;2023-02-15T11:18:09;12.60;;;9.63;;
4244;SDS011;2136;48.502;9.194;2023-02-15T11:20:42;13.83;;;10.70;;
4244;SDS011;2136;48.502;9.194;2023-02-15T11:23:15;12.10;;;9.90;;
4244;SDS011;2136;48.502;9.194;2023-02-15T11:25:44;15.30;;;10.07;;
4244;SDS011;2136;48.502;9.194;2023-02-15T11:28:18;25.93;;;14.13;;
4244;SDS011;2136;48.502;9.194;2023-02-15T11:30:49;11.87;;;10.57;;
4244;SDS011;2136;48.502;9.194;2023-02-15T11:33:21;10.77;;;9.73;;
4244;SDS011;2136;48.502;9.194;2023-02-15T11:35:53;18.70;;;12.87;;
4244;SDS011;2136;48.502;9.194;2023-02-15T11:38:27;12.63;;;10.07;;
4244;SDS011;2136;48.502;9.194;2023-02-15T11:40:58;12.53;;;10.47;;
4244;SDS011;2136;48.502;9.194;2023-02-15T11:43:31;10.87;;;9.53;;
4244;SDS011;2136;48.502;9.194;2023-02-15T11:46:02;17.13;;;9.97;;
4244;SDS011;2136;48.502;9.194;2023-02-15T11:48:31;13.73;;;10.50;;
4244;SDS011;2136;48.502;9.194;2023-02-15T11:50:58;15.97;;;11.17;;
4244;SDS011;2136;48.502;9.194;2023-02-15T11:53:26;14.53;;;9.90;;
4244;SDS011;2136;48.502;9.194;2023-02-15T11:55:57;18.20;;;11.17;;
4244;SDS011;2136;48.502;9.194;2023-02-15T11:58:27;15.07;;;11.97;;
4244;SDS011;2136;48.502;9.194;2023-02-15T12:01:00;16.27;;;10.20;;
4244;SDS011;2136;48.502;9.194;2023-02-15T12:03:39;17.80;;;11.90;;
4244;SDS011;2136;48.502;9.194;2023-02-15T12:06:15;14.47;;;11.40;;
4244;SDS011;2136;48.502;9.194;2023-02-15T12:08:51;15.43;;;11.90;;
4244;SDS011;2136;48.502;9.194;2023-02-15T12:11:22;12.97;;;10.20;;
4244;SDS011;2136;48.502;9.194;2023-02-15T12:13:55;16.90;;;9.27;;
4244;SDS011;2136;48.502;9.194;2023-02-15T12:16:23;13.43;;;10.10;;
4244;SDS011;2136;48.502;9.194;2023-02-15T12:18:53;13.97;;;9.90;;
4244;SDS011;2136;48.502;9.194;2023-02-15T12:21:26;20.80;;;9.80;;
4244;SDS011;2136;48.502;9.194;2023-02-15T12:23:56;13.27;;;9.60;;
4244;SDS011;2136;48.502;9.194;2023-02-15T12:26:26;16.67;;;10.07;;
4244;SDS011;2136;48.502;9.194;2023-02-15T12:28:56;15.83;;;11.07;;
4244;SDS011;2136;48.502;9.194;2023-02-15T12:31:27;12.53;;;9.20;;
4244;SDS011;2136;48.502;9.194;2023-02-15T12:34:00;13.50;;;8.40;;
4244;SDS011;2136;48.502;9.194;2023-02-15T12:36:40;20.47;;;11.00;;
4244;SDS011;2136;48.502;9.194;2023-02-15T12:39:18;11.57;;;8.13;;
4244;SDS011;2136;48.502;9.194;2023-02-15T12:41:56;17.20;;;7.70;;
4244;SDS011;2136;48.502;9.194;2023-02-15T12:44:26;17.03;;;8.70;;
4244;SDS011;2136;48.502;9.194;2023-02-15T12:46:58;10.23;;;6.90;;
4244;SDS011;2136;48.502;9.194;2023-02-15T12:49:28;10.20;;;7.87;;
4244;SDS011;2136;48.502;9.194;2023-02-15T12:51:56;15.33;;;7.97;;
4244;SDS011;2136;48.502;9.194;2023-02-15T12:54:34;10.63;;;7.50;;
4244;SDS011;2136;48.502;9.194;2023-02-15T12:57:24;8.90;;;7.30;;
4244;SDS011;2136;48.502;9.194;2023-02-15T12:59:53;12.47;;;6.90;;
4244;SDS011;2136;48.502;9.194;2023-02-15T13:02:23;10.57;;;6.63;;
4244;SDS011;2136;48.502;9.194;2023-02-15T13:04:57;35.07;;;7.33;;
4244;SDS011;2136;48.502;9.194;2023-02-15T13:07:34;15.17;;;6.80;;
4244;SDS011;2136;48.502;9.194;2023-02-15T13:10:00;9.85;;;6.38;;
4244;SDS011;2136;48.502;9.194;2023-02-15T13:12:28;8.63;;;5.30;;
4244;SDS011;2136;48.502;9.194;2023-02-15T13:14:57;6.90;;;4.77;;
4244;SDS011;2136;48.502;9.194;2023-02-15T13:17:27;6.30;;;5.23;;
4244;SDS011;2136;48.502;9.194;2023-02-15T13:20:00;8.10;;;5.00;;
4244;SDS011;2136;48.502;9.194;2023-02-15T13:22:32;6.97;;;5.50;;
4244;SDS011;2136;48.502;9.194;2023-02-15T13:25:04;9.50;;;5.43;;
4244;SDS011;2136;48.502;9.194;2023-02-15T13:27:39;8.60;;;6.53;;
4244;SDS011;2136;48.502;9.194;2023-02-15T13:30:21;8.50;;;6.37;;
4244;SDS011;2136;48.502;9.194;2023-02-15T13:32:51;7.70;;;5.63;;
4244;SDS011;2136;48.502;9.194;2023-02-15T13:35:22;9.73;;;5.80;;
4244;SDS011;2136;48.502;9.194;2023-02-15T13:40:41;10.10;;;6.30;;
4244;SDS011;2136;48.502;9.194;2023-02-15T13:43:17;8.23;;;5.77;;
4244;SDS011;2136;48.502;9.194;2023-02-15T13:45:55;12.93;;;7.33;;
4244;SDS011;2136;48.502;9.194;2023-02-15T13:48:37;10.57;;;7.17;;
4244;SDS011;2136;48.502;9.194;2023-02-15T13:51:14;8.40;;;6.90;;
4244;SDS011;2136;48.502;9.194;2023-02-15T13:53:56;10.10;;;7.17;;
4244;SDS011;2136;48.502;9.194;2023-02-15T13:56:39;10.57;;;7.13;;
4244;SDS011;2136;48.502;9.194;2023-02-15T13:59:17;11.00;;;8.00;;
4244;SDS011;2136;48.502;9.194;2023-02-15T14:01:55;12.40;;;8.00;;
4244;SDS011;2136;48.502;9.194;2023-02-15T14:07:23;14.97;;;9.03;;
4244;SDS011;2136;48.502;9.194;2023-02-15T14:10:19;11.90;;;7.43;;
4244;SDS011;2136;48.502;9.194;2023-02-15T14:12:58;13.67;;;9.10;;
4244;SDS011;2136;48.502;9.194;2023-02-15T14:15:40;8.70;;;6.77;;
4244;SDS011;2136;48.502;9.194;2023-02-15T14:18:12;9.47;;;6.67;;
4244;SDS011;2136;48.502;9.194;2023-02-15T14:20:47;11.97;;;7.40;;
4244;SDS011;2136;48.502;9.194;2023-02-15T14:23:25;8.33;;;6.20;;
4244;SDS011;2136;48.502;9.194;2023-02-15T14:26:15;6.97;;;5.10;;
4244;SDS011;2136;48.502;9.194;2023-02-15T14:28:50;7.10;;;5.50;;
4244;SDS011;2136;48.502;9.194;2023-02-15T14:31:24;7.87;;;5.80;;
4244;SDS011;2136;48.502;9.194;2023-02-15T14:33:56;11.23;;;6.13;;
4244;SDS011;2136;48.502;9.194;2023-02-15T14:36:24;9.53;;;6.20;;
4244;SDS011;2136;48.502;9.194;2023-02-15T14:38:59;9.20;;;6.70;;
4244;SDS011;2136;48.502;9.194;2023-02-15T14:41:53;12.13;;;6.97;;
4244;SDS011;2136;48.502;9.194;2023-02-15T14:44:26;10.87;;;5.60;;
4244;SDS011;2136;48.502;9.194;2023-02-15T14:47:01;6.87;;;5.70;;
4244;SDS011;2136;48.502;9.194;2023-02-15T14:49:35;5.60;;;4.97;;
4244;SDS011;2136;48.502;9.194;2023-02-15T14:52:04;6.80;;;5.50;;
4244;SDS011;2136;48.502;9.194;2023-02-15T14:57:23;6.87;;;4.70;;
4244;SDS011;2136;48.502;9.194;2023-02-15T14:59:53;5.27;;;4.70;;
4244;SDS011;2136;48.502;9.194;2023-02-15T15:02:23;4.70;;;3.87;;
4244;SDS011;2136;48.502;9.194;2023-02-15T15:04:56;6.37;;;4.17;;
4244;SDS011;2136;48.502;9.194;2023-02-15T15:07:34;7.70;;;4.90;;
4244;SDS011;2136;48.502;9.194;2023-02-15T15:10:07;11.53;;;4.50;;
4244;SDS011;2136;48.502;9.194;2023-02-15T15:19:07;6.50;;;4.70;;
4244;SDS011;2136;48.502;9.194;2023-02-15T15:21:51;7.40;;;5.30;;
4244;SDS011;2136;48.502;9.194;2023-02-15T15:33:33;7.03;;;4.70;;
4244;SDS011;2136;48.502;9.194;2023-02-15T15:39:55;9.50;;;5.80;;
4244;SDS011;2136;48.502;9.194;2023-02-15T15:43:07;8.60;;;5.53;;
4244;SDS011;2136;48.502;9.194;2023-02-15T15:46:02;5.63;;;5.10;;
4244;SDS011;2136;48.502;9.194;2023-02-15T15:48:54;7.67;;;5.50;;
4244;SDS011;2136;48.502;9.194;2023-02-15T15:51:27;7.90;;;6.00;;
4244;SDS011;2136;48.502;9.194;2023-02-15T15:53:56;12.10;;;5.60;;
4244;SDS011;2136;48.502;9.194;2023-02-15T15:56:24;9.43;;;5.60;;
4244;SDS011;2136;48.502;9.194;2023-02-15T15:58:57;24.43;;;6.10;;